Ashley, PA

4:40 PM EDT on August 21, 2014 (GMT -0400)
Solomon Creek at Franklin Junction | Change Station
CLOSE
Current Station
Personal Weather Station
Location: Hanover Township, PA
Elevation: 587 ft
Nearby Weather Stations

Elev 587 ft 41.22 °N, 75.91 °W | Updated 5 seconds ago

Partly Cloudy
Partly Cloudy
81.3 °F
Feels Like 86 °F
N
0.0
Wind Variable Wind from West
Gusts 2.0 mph

Today
High -- | Low -- °F
--% Chance of Precip.
Yesterday
High -- | Low -- °F
Precip. -- in
6:19 AM 7:53 PM
Waning Crescent, 12% visible
Pressure 29.95 in
Visibility 10.0 miles
Clouds Few 4700 ft
Heat Index 86 °F
Dew Point 71 °F
Humidity 72%
Rainfall 0.00 in
Snow Depth Not available.
UV 6 out of 12
Pollen 8.20 out of 12
Air Quality Not available.
Flu Activity Not available.
METAR KAVP 211954Z AUTO 24013G18KT 10SM FEW047 30/17 A2998 RMK AO2 SLP140 T03000172 TSNO

More Conditions Fewer Conditions

Pressure 29.95 in
Visibility 10.0 miles
Clouds Few 4700 ft
Heat Index 86 °F
Dew Point 71 °F
Humidity 72%
Rainfall 0.00 in
Snow Depth Not available.
UV 6 out of 12
Pollen 8.20 out of 12
Air Quality Not available.
Flu Activity Not available.
METAR KAVP 211954Z AUTO 24013G18KT 10SM FEW047 30/17 A2998 RMK AO2 SLP140 T03000172 TSNO

More Conditions Fewer Conditions

10-Day Weather Forecast

Almanac

Astronomy

Aug. 21, 2014 Rise Set
Actual Time 6:19 AM EDT 7:53 PM EDT
Civil Twilight 5:49 AM EDT 8:22 PM EDT
Nautical Twilight 5:14 AM EDT 8:57 PM EDT
Astronomical Twilight 4:37 AM EDT 9:35 PM EDT
Moon 2:46 AM EDT 5:21 PM EDT
Length of Visible Light 14h 32m
Length of Day
13h 34m
Tomorrow will be 2m 32s shorter.
Waning Crescent, 12% of the Moon is Illuminated
Today
Waning Crescent
Aug 25
New
Sep 2
First Quarter
Sep 8
Full
Sep 15
Last Quarter

Today's Extremes

State Highs State Lows

Community

WunderPhotos

Upload Photos

1,746,018 photos uploaded!

WunderBlogs® & News

Nearby

Snow Depth

Station Depth Elevation
No new snow has been reported.

Earthquake Activity

City Distance Mag. Time & Date
No recent earthquake activity has been reported nearby.
Minimum magnitude displayed is 2.5.

Coastal Water Temperatures

Place Temperature
No Stations Reporting

Nearby Weather Stations